Main page
METAR-TAF:

METAR-TAF

Airports :

Phetchabun Airport

Phetchabun, Thailand

latitude: 16-40-33N, longitude: 101-11-42E, elevation: 137 m

Current weather observation

The report was made 8 hours and 58 minutes ago, at 11:00 UTC
Wind 3 kt from the East
Temperature 28°C
Humidity 79%
Pressure 1009 hPa
Visibility 10 km or more
Few clouds at a height of 3000 ft

METAR: VTPB 011100Z 08003KT 9999 FEW030 28/24 Q1009 NOSIG

Time: 02:58 (19:58 UTC)

Forecast

The report was made 2 hours and 58 minutes ago, at 17:00 UTC
Forecast valid from 01 at 18 UTC to 02 at 18 UTC
Wind 5 kt from the North
Visibility 10 km or more
Scattered clouds at a height of 3000 ft

TAF: VTPB 011700Z 0118/0218 36005KT 9999 SCT030

Weather observations and forecasts of more than 4000 airports (METAR and TAF reports).

The available stations are represented by yellow and red dots on the map.

Hover mouse over dot to see the name of the station.

Then click to see weather observations and forecasts.

To change the map : click on the green buttons with a black cross to zoom in, on the green button with a dash to zoom out, or on the green arrows for adjacent maps.


METAR-TAF: